createdAt,value
2023-04-18T00:00:43.217Z,76.32
2023-04-18T00:01:45.796Z,76.38
2023-04-18T00:02:47.584Z,76.67
2023-04-18T00:03:52.740Z,76.73
2023-04-18T00:04:54.690Z,76.66
2023-04-18T00:05:56.498Z,76.61
2023-04-18T00:06:58.146Z,76.76
2023-04-18T00:07:59.750Z,76.79
2023-04-18T00:09:01.667Z,77.03
2023-04-18T00:10:07.275Z,76.72
2023-04-18T00:11:09.037Z,76.67
2023-04-18T00:12:10.681Z,76.73
2023-04-18T00:13:12.292Z,76.89
2023-04-18T00:14:14.547Z,76.90
2023-04-18T00:15:16.510Z,77.07
2023-04-18T00:16:18.156Z,77.04
2023-04-18T00:17:21.183Z,76.91
2023-04-18T00:18:26.211Z,76.89
2023-04-18T00:19:27.867Z,76.76
2023-04-18T00:20:29.603Z,76.66
2023-04-18T00:21:33.074Z,76.89
2023-04-18T00:22:34.694Z,77.08
2023-04-18T00:23:36.344Z,77.06
2023-04-18T00:24:37.982Z,77.13
2023-04-18T00:25:40.464Z,77.21
2023-04-18T00:26:42.099Z,77.19
2023-04-18T00:27:43.755Z,77.21
2023-04-18T00:28:45.484Z,77.33
2023-04-18T00:29:49.914Z,77.40
2023-04-18T00:30:51.536Z,77.55
2023-04-18T00:31:53.145Z,77.47
2023-04-18T00:32:54.826Z,77.47
2023-04-18T00:33:56.443Z,77.47
2023-04-18T00:34:58.039Z,77.62
2023-04-18T00:35:59.628Z,77.87
2023-04-18T00:37:01.231Z,78.06
2023-04-18T00:38:03.253Z,78.14
2023-04-18T00:39:04.873Z,78.01
2023-04-18T00:40:06.893Z,77.96
2023-04-18T00:41:08.533Z,77.80
2023-04-18T00:42:10.090Z,77.77
2023-04-18T00:43:14.752Z,77.99
2023-04-18T00:44:16.443Z,78.04
2023-04-18T00:45:18.098Z,78.72
2023-04-18T00:46:19.786Z,79.10
2023-04-18T00:47:21.479Z,79.76
2023-04-18T00:48:23.114Z,80.34
2023-04-18T00:49:24.693Z,80.61
2023-04-18T00:50:26.448Z,80.56
2023-04-18T00:51:28.381Z,81.11
2023-04-18T00:52:30.125Z,81.14
2023-04-18T00:53:31.723Z,80.94
2023-04-18T00:54:33.344Z,80.36
2023-04-18T00:55:34.956Z,80.74
2023-04-18T00:56:36.539Z,80.90
2023-04-18T00:57:38.410Z,80.07
2023-04-18T00:58:40.993Z,79.91
2023-04-18T00:59:42.641Z,79.07
2023-04-18T01:00:44.221Z,79.44
2023-04-18T01:01:45.870Z,78.85
2023-04-18T01:02:50.029Z,78.90
2023-04-18T01:03:52.097Z,78.69
2023-04-18T01:04:53.877Z,78.60
2023-04-18T01:05:55.642Z,79.45
2023-04-18T01:06:57.251Z,78.52
2023-04-18T01:08:01.255Z,78.80
2023-04-18T01:09:04.491Z,78.01
2023-04-18T01:10:06.735Z,78.08
2023-04-18T01:11:08.337Z,77.70
2023-04-18T01:12:09.924Z,77.81
2023-04-18T01:13:18.636Z,76.92
2023-04-18T01:14:20.701Z,77.44
2023-04-18T01:15:22.292Z,77.92
2023-04-18T01:16:24.076Z,77.67
2023-04-18T01:17:28.506Z,77.35
2023-04-18T01:18:31.614Z,77.46
2023-04-18T01:19:33.571Z,77.50
2023-04-18T01:20:42.555Z,78.08
2023-04-18T01:21:44.121Z,77.96
2023-04-18T01:22:46.105Z,78.03
2023-04-18T01:23:51.395Z,78.55
2023-04-18T01:24:53.256Z,78.43
2023-04-18T01:25:54.831Z,78.15
2023-04-18T01:26:57.307Z,78.70
2023-04-18T01:27:59.415Z,78.65
2023-04-18T01:29:01.037Z,78.70
2023-04-18T01:30:02.690Z,78.90
2023-04-18T01:31:04.589Z,78.52
2023-04-18T01:32:06.481Z,77.92
2023-04-18T01:33:08.086Z,78.06
2023-04-18T01:34:09.740Z,78.30
2023-04-18T01:35:11.709Z,78.28
2023-04-18T01:36:13.365Z,77.95
2023-04-18T01:37:14.984Z,77.82
2023-04-18T01:38:16.606Z,77.98
2023-04-18T01:39:18.464Z,78.07
2023-04-18T01:40:20.111Z,78.11
2023-04-18T01:41:21.738Z,77.94
2023-04-18T01:42:23.315Z,77.95
2023-04-18T01:43:24.913Z,78.22
2023-04-18T01:44:26.527Z,78.02
2023-04-18T01:45:28.223Z,77.95
2023-04-18T01:46:29.967Z,77.96
2023-04-18T01:47:31.640Z,78.05
2023-04-18T01:48:33.425Z,78.23
2023-04-18T01:49:35.018Z,77.56
2023-04-18T01:50:36.704Z,77.50
2023-04-18T01:51:39.013Z,77.47
2023-04-18T01:52:40.645Z,77.47
2023-04-18T01:53:42.281Z,77.67
2023-04-18T01:54:43.844Z,78.26
2023-04-18T01:55:45.454Z,77.70
2023-04-18T01:56:47.131Z,77.57
2023-04-18T01:57:50.830Z,77.97
2023-04-18T01:58:52.445Z,77.87
2023-04-18T01:59:54.107Z,77.41
2023-04-18T02:00:57.776Z,77.53
2023-04-18T02:01:59.456Z,77.59
2023-04-18T02:03:01.218Z,77.96
2023-04-18T02:04:02.980Z,77.84
2023-04-18T02:05:04.845Z,77.88
2023-04-18T02:06:06.777Z,77.30
2023-04-18T02:07:08.489Z,77.51
2023-04-18T02:08:11.743Z,77.53
2023-04-18T02:09:13.324Z,77.33
2023-04-18T02:10:15.574Z,77.46
2023-04-18T02:11:17.273Z,77.31
2023-04-18T02:12:18.872Z,77.61
2023-04-18T02:13:20.480Z,77.27
2023-04-18T02:14:22.136Z,77.11
2023-04-18T02:15:24.175Z,77.12
2023-04-18T02:16:26.206Z,77.48
2023-04-18T02:17:28.515Z,77.48
2023-04-18T02:18:30.670Z,77.46
2023-04-18T02:19:32.267Z,77.77
2023-04-18T02:20:33.898Z,77.95
2023-04-18T02:21:35.579Z,77.91
2023-04-18T02:22:38.381Z,78.24
2023-04-18T02:23:39.960Z,78.26
2023-04-18T02:24:41.639Z,79.13
2023-04-18T02:25:43.235Z,78.90
2023-04-18T02:26:44.898Z,79.17
2023-04-18T02:27:46.569Z,78.92
2023-04-18T02:28:48.170Z,79.14
2023-04-18T02:29:49.729Z,78.99
2023-04-18T02:30:51.359Z,79.49
2023-04-18T02:31:53.046Z,79.37
2023-04-18T02:32:57.109Z,79.93
2023-04-18T02:33:58.958Z,79.35
2023-04-18T02:35:00.583Z,79.71
2023-04-18T02:36:02.185Z,79.82
2023-04-18T02:37:04.424Z,79.44
2023-04-18T02:38:06.512Z,79.63
2023-04-18T02:39:08.151Z,79.50
2023-04-18T02:40:10.223Z,79.30
2023-04-18T02:41:15.331Z,79.08
2023-04-18T02:42:17.080Z,78.94
2023-04-18T02:43:18.716Z,79.22
2023-04-18T02:44:20.484Z,79.54
2023-04-18T02:45:22.070Z,79.85
2023-04-18T02:46:23.743Z,79.44
2023-04-18T02:47:25.455Z,78.85
2023-04-18T02:48:27.121Z,78.61
2023-04-18T02:49:28.884Z,78.35
2023-04-18T02:50:30.503Z,78.86
2023-04-18T02:51:32.143Z,77.70
2023-04-18T02:52:33.749Z,79.12
2023-04-18T02:53:35.529Z,79.12
2023-04-18T02:54:37.162Z,78.80
2023-04-18T02:55:38.766Z,78.52
2023-04-18T02:56:40.403Z,78.53
2023-04-18T02:57:42.002Z,78.38
2023-04-18T02:58:43.615Z,78.16
2023-04-18T02:59:45.303Z,77.86
2023-04-18T03:00:46.908Z,78.05
2023-04-18T03:01:48.618Z,77.98
2023-04-18T03:02:50.729Z,77.72
2023-04-18T03:03:53.662Z,77.31
2023-04-18T03:04:56.549Z,77.23
2023-04-18T03:05:58.176Z,77.33
2023-04-18T03:06:59.752Z,77.26
2023-04-18T03:08:01.346Z,77.10
2023-04-18T03:09:03.619Z,77.20
2023-04-18T03:10:06.037Z,77.24
2023-04-18T03:11:07.751Z,77.13
2023-04-18T03:12:09.458Z,77.14
2023-04-18T03:13:11.060Z,77.19
2023-04-18T03:14:12.833Z,77.38
2023-04-18T03:15:14.627Z,77.29
2023-04-18T03:16:16.903Z,77.16
2023-04-18T03:17:18.737Z,77.58
2023-04-18T03:18:20.760Z,77.18
2023-04-18T03:19:22.346Z,77.54
2023-04-18T03:20:24.130Z,77.63
2023-04-18T03:21:25.723Z,77.82
2023-04-18T03:22:27.382Z,77.82
2023-04-18T03:23:29.020Z,77.75
2023-04-18T03:24:30.909Z,77.46
2023-04-18T03:25:32.585Z,77.47
2023-04-18T03:26:34.266Z,77.37
2023-04-18T03:27:35.873Z,77.23
2023-04-18T03:28:37.476Z,77.27
2023-04-18T03:29:39.100Z,77.49
2023-04-18T03:30:40.757Z,78.02
2023-04-18T03:31:42.531Z,78.45
2023-04-18T03:32:44.355Z,78.30
2023-04-18T03:33:46.165Z,78.84
2023-04-18T03:34:47.967Z,78.91
2023-04-18T03:35:49.657Z,79.24
2023-04-18T03:36:51.265Z,79.30
2023-04-18T03:37:52.954Z,79.99
2023-04-18T03:38:54.970Z,79.97
2023-04-18T03:39:57.280Z,80.04
2023-04-18T03:40:58.875Z,80.78
2023-04-18T03:42:02.105Z,80.94
2023-04-18T03:43:03.815Z,82.07
2023-04-18T03:44:05.598Z,81.48
2023-04-18T03:45:07.796Z,81.34
2023-04-18T03:46:09.433Z,81.70
2023-04-18T03:47:11.249Z,82.31
2023-04-18T03:48:14.234Z,82.09
2023-04-18T03:49:15.864Z,81.76
2023-04-18T03:50:17.456Z,82.59
2023-04-18T03:51:19.061Z,83.72
2023-04-18T03:52:20.694Z,84.01
2023-04-18T03:53:22.397Z,84.69
2023-04-18T03:54:23.996Z,84.34
2023-04-18T03:55:25.763Z,83.83
2023-04-18T03:56:27.429Z,83.19
2023-04-18T03:57:29.032Z,83.81
2023-04-18T03:58:30.773Z,84.22
2023-04-18T03:59:32.348Z,83.77
2023-04-18T04:00:34.006Z,84.68
2023-04-18T04:01:35.648Z,85.28
2023-04-18T04:02:37.427Z,85.70
2023-04-18T04:03:39.327Z,86.08
2023-04-18T04:04:41.212Z,86.92
2023-04-18T04:05:42.889Z,86.68
2023-04-18T04:06:44.526Z,87.07
2023-04-18T04:07:46.506Z,87.08
2023-04-18T04:08:48.075Z,87.20
2023-04-18T04:09:49.806Z,87.70
2023-04-18T04:10:51.429Z,87.89
2023-04-18T04:11:53.023Z,87.81
2023-04-18T04:12:54.628Z,88.13
2023-04-18T04:13:56.221Z,88.75
2023-04-18T04:14:58.004Z,88.26
2023-04-18T04:15:59.705Z,87.41
2023-04-18T04:17:01.452Z,87.64
2023-04-18T04:18:03.095Z,87.13
2023-04-18T04:19:04.733Z,86.68
2023-04-18T04:20:07.521Z,86.10
2023-04-18T04:21:09.105Z,85.02
2023-04-18T04:22:10.765Z,84.57
2023-04-18T04:23:12.738Z,85.08
2023-04-18T04:24:14.527Z,85.49
2023-04-18T04:25:17.520Z,85.76
2023-04-18T04:26:19.135Z,84.63
2023-04-18T04:27:20.810Z,85.22
2023-04-18T04:28:22.852Z,85.14
2023-04-18T04:29:24.476Z,85.11
2023-04-18T04:30:26.327Z,84.55
2023-04-18T04:31:28.842Z,85.14
2023-04-18T04:32:30.752Z,84.70
2023-04-18T04:33:33.405Z,84.61
2023-04-18T04:34:35.713Z,84.67
2023-04-18T04:35:37.301Z,84.69
2023-04-18T04:36:41.322Z,85.12
2023-04-18T04:37:44.151Z,84.65
2023-04-18T04:38:45.807Z,84.38
2023-04-18T04:39:47.517Z,84.33
2023-04-18T04:40:49.707Z,84.05
2023-04-18T04:41:53.582Z,84.37
2023-04-18T04:42:56.181Z,83.66
2023-04-18T04:43:57.816Z,84.11
2023-04-18T04:44:59.564Z,84.57
2023-04-18T04:46:03.870Z,83.68
2023-04-18T04:47:05.591Z,84.82
2023-04-18T04:48:10.508Z,84.21
2023-04-18T04:49:12.235Z,85.29
2023-04-18T04:50:15.742Z,83.96
2023-04-18T04:51:17.422Z,85.66
2023-04-18T04:52:19.117Z,85.24
2023-04-18T04:53:20.866Z,85.68
2023-04-18T04:54:22.467Z,85.52
2023-04-18T04:55:24.824Z,85.20
2023-04-18T04:56:26.400Z,83.82
2023-04-18T04:57:28.050Z,83.89
2023-04-18T04:58:29.700Z,83.74
2023-04-18T04:59:31.532Z,83.55
2023-04-18T05:00:33.118Z,83.51
2023-04-18T05:01:36.368Z,83.73
2023-04-18T05:02:38.247Z,82.85
2023-04-18T05:03:40.209Z,83.08
2023-04-18T05:04:41.942Z,83.14
2023-04-18T05:05:43.553Z,82.96
2023-04-18T05:06:45.226Z,83.28
2023-04-18T05:07:47.441Z,83.04
2023-04-18T05:08:49.740Z,83.19
2023-04-18T05:09:53.275Z,83.32
2023-04-18T05:10:55.367Z,83.58
2023-04-18T05:11:57.137Z,83.49
2023-04-18T05:12:58.757Z,82.93
2023-04-18T05:14:00.341Z,82.78
2023-04-18T05:15:02.090Z,82.82
2023-04-18T05:16:04.147Z,82.70
2023-04-18T05:17:05.859Z,82.71
2023-04-18T05:18:07.541Z,82.48
2023-04-18T05:19:09.382Z,82.47
2023-04-18T05:20:11.499Z,82.19
2023-04-18T05:21:13.180Z,81.86
2023-04-18T05:22:14.775Z,82.56
2023-04-18T05:23:16.367Z,82.05
2023-04-18T05:24:18.147Z,81.79
2023-04-18T05:25:20.028Z,81.77
2023-04-18T05:26:22.088Z,81.94
2023-04-18T05:27:23.716Z,81.02
2023-04-18T05:28:25.816Z,82.13
2023-04-18T05:29:27.599Z,82.62
2023-04-18T05:30:29.189Z,82.44
2023-04-18T05:31:33.630Z,82.49
2023-04-18T05:32:35.361Z,81.50
2023-04-18T05:33:37.027Z,81.97
2023-04-18T05:34:38.978Z,82.04
2023-04-18T05:35:40.592Z,82.26
2023-04-18T05:36:42.215Z,81.80
2023-04-18T05:37:43.995Z,82.30
2023-04-18T05:38:45.720Z,81.99
2023-04-18T05:39:47.321Z,82.25
2023-04-18T05:40:51.142Z,81.31
2023-04-18T05:41:52.705Z,81.79
2023-04-18T05:42:54.389Z,82.11
2023-04-18T05:44:04.854Z,82.18
2023-04-18T05:45:07.999Z,82.56
2023-04-18T05:46:09.598Z,82.38
2023-04-18T05:47:11.237Z,82.00
2023-04-18T05:48:12.948Z,81.97
2023-04-18T05:49:14.745Z,81.85
2023-04-18T05:50:16.451Z,81.82
2023-04-18T05:51:18.120Z,81.71
2023-04-18T05:52:19.687Z,82.18
2023-04-18T05:53:21.393Z,82.16
2023-04-18T05:54:22.990Z,82.61
2023-04-18T05:55:25.850Z,82.64
2023-04-18T05:56:27.478Z,82.55
2023-04-18T05:57:29.084Z,82.94
2023-04-18T05:58:30.714Z,83.48
2023-04-18T05:59:32.391Z,83.54
2023-04-18T06:00:34.446Z,83.21
2023-04-18T06:01:36.017Z,82.93
2023-04-18T06:02:37.793Z,83.76
2023-04-18T06:03:40.156Z,82.81
2023-04-18T06:04:42.480Z,83.05
2023-04-18T06:05:44.554Z,83.08
2023-04-18T06:06:46.228Z,83.31
2023-04-18T06:07:48.252Z,83.99
2023-04-18T06:08:49.842Z,83.97
2023-04-18T06:09:51.539Z,84.03
2023-04-18T06:10:53.207Z,83.94
2023-04-18T06:11:54.796Z,84.13
2023-04-18T06:12:56.373Z,83.79
2023-04-18T06:13:57.924Z,84.12
2023-04-18T06:14:59.561Z,83.93
2023-04-18T06:16:01.226Z,83.57
2023-04-18T06:17:03.014Z,83.59
2023-04-18T06:18:04.698Z,84.00
2023-04-18T06:19:06.349Z,83.58
2023-04-18T06:20:09.083Z,84.36
2023-04-18T06:21:10.752Z,84.16
2023-04-18T06:22:12.343Z,84.46
2023-04-18T06:23:13.948Z,83.77
2023-04-18T06:24:15.818Z,84.32
2023-04-18T06:25:18.180Z,84.26
2023-04-18T06:26:19.777Z,83.82
2023-04-18T06:27:30.643Z,84.15
2023-04-18T06:28:33.487Z,84.03
2023-04-18T06:29:36.208Z,83.95
2023-04-18T06:30:39.161Z,83.28
2023-04-18T06:31:42.252Z,83.26
2023-04-18T06:32:44.071Z,83.48
2023-04-18T06:33:45.739Z,82.67
2023-04-18T06:34:47.331Z,82.87
2023-04-18T06:35:48.913Z,83.07
2023-04-18T06:36:50.514Z,82.21
2023-04-18T06:37:52.278Z,81.71
2023-04-18T06:38:53.905Z,82.03
2023-04-18T06:39:55.611Z,82.20
2023-04-18T06:40:57.198Z,82.31
2023-04-18T06:41:58.811Z,82.09
2023-04-18T06:43:00.413Z,82.09
2023-04-18T06:44:04.037Z,81.80
2023-04-18T06:45:06.634Z,81.75
2023-04-18T06:46:08.277Z,81.79
2023-04-18T06:47:10.655Z,80.08
2023-04-18T06:48:12.372Z,82.31
2023-04-18T06:49:14.037Z,82.85
2023-04-18T06:50:15.961Z,83.78
2023-04-18T06:51:17.554Z,83.74
2023-04-18T06:52:19.214Z,84.01
2023-04-18T06:53:21.054Z,83.29
2023-04-18T06:54:22.765Z,84.07
2023-04-18T06:55:24.403Z,83.39
2023-04-18T06:56:26.177Z,82.75
2023-04-18T06:57:27.819Z,82.10
2023-04-18T06:58:30.291Z,81.93
2023-04-18T06:59:31.933Z,81.28
2023-04-18T07:00:33.503Z,82.46
2023-04-18T07:01:39.004Z,82.12
2023-04-18T07:02:41.158Z,82.01
2023-04-18T07:03:42.958Z,81.02
2023-04-18T07:04:44.869Z,81.36
2023-04-18T07:05:46.603Z,80.58
2023-04-18T07:06:48.267Z,79.50
2023-04-18T07:07:49.920Z,80.21
2023-04-18T07:08:53.956Z,80.83
2023-04-18T07:09:56.224Z,80.61
2023-04-18T07:10:57.790Z,80.45
2023-04-18T07:11:59.540Z,80.87
2023-04-18T07:13:01.158Z,80.36
2023-04-18T07:14:02.943Z,79.38
2023-04-18T07:15:04.935Z,79.79
2023-04-18T07:16:07.308Z,80.32
2023-04-18T07:17:08.958Z,79.85
2023-04-18T07:18:11.029Z,79.23
2023-04-18T07:19:12.950Z,80.05
2023-04-18T07:20:14.631Z,79.82
2023-04-18T07:21:16.250Z,79.75
2023-04-18T07:22:17.899Z,78.11
2023-04-18T07:23:19.579Z,78.03
2023-04-18T07:24:23.604Z,77.95
2023-04-18T07:25:25.298Z,78.52
2023-04-18T07:26:27.674Z,78.43
2023-04-18T07:27:29.328Z,76.12
2023-04-18T07:28:31.435Z,78.25
2023-04-18T07:29:33.098Z,75.81
2023-04-18T07:30:34.735Z,74.65
2023-04-18T07:31:36.528Z,75.49
2023-04-18T07:32:38.252Z,75.75
2023-04-18T07:33:40.119Z,75.69
2023-04-18T07:34:41.809Z,76.30
2023-04-18T07:35:46.071Z,77.00
2023-04-18T07:36:47.735Z,77.77
2023-04-18T07:37:49.322Z,75.42
2023-04-18T07:38:51.884Z,74.60
2023-04-18T07:39:53.532Z,75.00
2023-04-18T07:40:59.028Z,76.04
2023-04-18T07:42:00.768Z,75.23
2023-04-18T07:43:02.579Z,75.66
2023-04-18T07:44:04.266Z,74.47
2023-04-18T07:45:06.564Z,73.78
2023-04-18T07:46:08.312Z,72.48
2023-04-18T07:47:10.361Z,69.77
2023-04-18T07:48:12.073Z,70.07
2023-04-18T07:49:13.999Z,69.31
2023-04-18T07:50:15.744Z,68.75
2023-04-18T07:51:17.483Z,69.04
2023-04-18T07:52:19.195Z,68.80
2023-04-18T07:53:21.119Z,68.29
2023-04-18T07:54:22.989Z,68.76
2023-04-18T07:55:24.615Z,68.62
2023-04-18T07:56:26.904Z,68.80
2023-04-18T07:57:28.552Z,68.45
2023-04-18T07:58:30.195Z,69.01
2023-04-18T07:59:32.302Z,69.51
2023-04-18T08:00:34.047Z,68.78
2023-04-18T08:01:35.893Z,69.35
2023-04-18T08:02:37.648Z,68.28
2023-04-18T08:03:39.470Z,69.04
2023-04-18T08:04:41.455Z,68.29
2023-04-18T08:05:43.297Z,68.09
2023-04-18T08:06:44.945Z,69.95
2023-04-18T08:07:46.599Z,67.04
2023-04-18T08:08:48.275Z,67.32
2023-04-18T08:09:50.007Z,66.76
2023-04-18T08:10:51.655Z,67.28
2023-04-18T08:11:55.229Z,66.54
2023-04-18T08:12:57.061Z,65.03
2023-04-18T08:13:58.663Z,66.52
2023-04-18T08:15:00.351Z,65.37
2023-04-18T08:16:03.036Z,65.64
2023-04-18T08:17:04.739Z,63.78
2023-04-18T08:18:06.475Z,64.40
2023-04-18T08:19:08.145Z,64.42
2023-04-18T08:20:10.122Z,64.58
2023-04-18T08:21:11.849Z,64.61
2023-04-18T08:22:13.584Z,64.39
2023-04-18T08:23:15.955Z,65.16
2023-04-18T08:24:17.550Z,63.61
2023-04-18T08:25:19.244Z,64.37
2023-04-18T08:26:21.938Z,63.12
2023-04-18T08:27:23.562Z,63.90
2023-04-18T08:28:25.189Z,63.98
2023-04-18T08:29:27.293Z,64.30
2023-04-18T08:30:29.018Z,64.27
2023-04-18T08:31:31.809Z,64.80
2023-04-18T08:32:33.590Z,65.25
2023-04-18T08:33:35.223Z,64.61
2023-04-18T08:34:37.178Z,65.46
2023-04-18T08:35:38.812Z,63.82
2023-04-18T08:36:40.595Z,63.70
2023-04-18T08:37:43.250Z,65.01
2023-04-18T08:38:44.856Z,64.31
2023-04-18T08:39:46.442Z,64.03
2023-04-18T08:40:48.062Z,63.98
2023-04-18T08:41:59.023Z,64.25
2023-04-18T08:43:02.184Z,64.23
2023-04-18T08:44:04.615Z,64.89
2023-04-18T08:45:06.983Z,64.89
2023-04-18T08:46:09.228Z,64.45
2023-04-18T08:47:10.933Z,64.73
2023-04-18T08:48:16.396Z,64.03
2023-04-18T08:49:18.644Z,64.39
2023-04-18T08:50:20.349Z,64.68
2023-04-18T08:51:22.613Z,66.95
2023-04-18T08:52:24.676Z,65.92
2023-04-18T08:53:26.723Z,63.37
2023-04-18T08:54:30.488Z,62.79
2023-04-18T08:55:33.712Z,63.08
2023-04-18T08:56:37.538Z,64.49
2023-04-18T08:57:39.915Z,63.08
2023-04-18T08:58:41.617Z,63.82
2023-04-18T08:59:46.352Z,63.52
2023-04-18T09:00:52.950Z,63.50
2023-04-18T09:01:57.213Z,63.87
2023-04-18T09:02:59.425Z,63.24
2023-04-18T09:04:01.281Z,61.83
2023-04-18T09:05:10.639Z,62.78
2023-04-18T09:06:13.979Z,63.74
2023-04-18T09:07:16.619Z,62.41
2023-04-18T09:08:24.591Z,61.62
2023-04-18T09:09:27.639Z,63.87
2023-04-18T09:10:33.511Z,63.22
2023-04-18T09:11:35.731Z,63.38
2023-04-18T09:12:49.934Z,64.10
2023-04-18T09:13:53.297Z,63.00
2023-04-18T09:15:20.301Z,63.81
2023-04-18T09:16:23.168Z,63.58
2023-04-18T09:17:34.152Z,63.29
2023-04-18T09:18:36.363Z,62.84
2023-04-18T09:19:38.185Z,63.74
2023-04-18T09:20:43.885Z,64.42
2023-04-18T09:21:48.922Z,62.35
2023-04-18T09:22:51.944Z,62.15
2023-04-18T09:24:08.784Z,62.16
2023-04-18T09:25:10.473Z,62.06
2023-04-18T09:26:12.394Z,61.85
2023-04-18T09:27:16.741Z,62.35
2023-04-18T09:28:44.680Z,61.96
2023-04-18T09:29:51.986Z,61.71
2023-04-18T09:30:54.400Z,63.41
2023-04-18T09:31:57.720Z,62.10
2023-04-18T09:33:06.451Z,61.47
2023-04-18T09:34:19.837Z,59.69
2023-04-18T09:35:24.902Z,58.91
2023-04-18T09:36:31.335Z,59.72
2023-04-18T09:37:33.068Z,57.94
2023-04-18T09:38:41.326Z,59.34
2023-04-18T09:39:44.023Z,58.95
2023-04-18T09:40:45.774Z,58.57
2023-04-18T09:42:00.766Z,59.72
2023-04-18T09:43:19.292Z,60.76
2023-04-18T09:44:21.145Z,59.90
2023-04-18T09:45:23.449Z,60.51
2023-04-18T09:46:25.394Z,60.66
2023-04-18T09:47:28.166Z,60.41
2023-04-18T09:48:29.816Z,61.62
2023-04-18T09:49:31.459Z,60.07
2023-04-18T09:50:33.187Z,61.43
2023-04-18T09:51:34.774Z,61.91
2023-04-18T09:52:40.636Z,61.97
2023-04-18T09:53:44.739Z,59.78
2023-04-18T09:54:48.222Z,60.32
2023-04-18T09:55:54.949Z,61.27
2023-04-18T09:56:59.346Z,60.70
2023-04-18T09:58:01.166Z,60.81
2023-04-18T09:59:09.474Z,60.27
2023-04-18T10:00:17.779Z,61.28
2023-04-18T10:01:19.517Z,62.02
2023-04-18T10:02:22.674Z,61.31
2023-04-18T10:03:25.196Z,62.16
2023-04-18T10:04:27.284Z,62.45
2023-04-18T10:05:31.594Z,63.72
2023-04-18T10:06:42.071Z,62.88
2023-04-18T10:07:47.678Z,63.76
2023-04-18T10:08:49.371Z,63.27
2023-04-18T10:09:51.105Z,62.71
2023-04-18T10:10:53.716Z,62.91
2023-04-18T10:11:55.372Z,62.60
2023-04-18T10:12:57.904Z,62.07
2023-04-18T10:14:10.071Z,62.58
2023-04-18T10:15:11.917Z,62.75
2023-04-18T10:16:14.669Z,63.05
2023-04-18T10:17:16.386Z,63.58
2023-04-18T10:18:18.391Z,61.58
2023-04-18T10:19:29.710Z,61.67
2023-04-18T10:20:32.088Z,61.40
2023-04-18T10:21:34.158Z,61.67
2023-04-18T10:22:36.649Z,62.62
2023-04-18T10:23:39.311Z,62.61
2023-04-18T10:24:54.114Z,62.60
2023-04-18T10:25:55.907Z,60.55
2023-04-18T10:26:58.147Z,60.06
2023-04-18T10:28:03.090Z,59.23
2023-04-18T10:29:04.873Z,59.79
2023-04-18T10:30:08.998Z,59.51
2023-04-18T10:31:11.800Z,59.03
2023-04-18T10:32:13.493Z,59.31
2023-04-18T10:33:32.013Z,59.82
2023-04-18T10:34:36.810Z,59.63
2023-04-18T10:35:40.406Z,58.25
2023-04-18T10:37:03.386Z,57.94
2023-04-18T10:38:05.000Z,57.59
2023-04-18T10:39:22.765Z,57.55
2023-04-18T10:40:34.126Z,57.72
2023-04-18T10:41:38.415Z,58.23
2023-04-18T10:42:45.852Z,56.61
2023-04-18T10:44:07.638Z,56.67
2023-04-18T10:45:26.324Z,55.78
2023-04-18T10:46:32.314Z,56.32
2023-04-18T10:47:34.705Z,56.10
2023-04-18T10:48:39.316Z,57.11
2023-04-18T10:49:40.961Z,56.36
2023-04-18T10:51:20.938Z,56.57
2023-04-18T10:52:22.606Z,57.06
2023-04-18T10:53:24.246Z,57.24
2023-04-18T10:54:41.132Z,56.99
2023-04-18T10:55:42.805Z,56.90
2023-04-18T10:56:54.104Z,56.99
2023-04-18T10:57:56.553Z,57.72
2023-04-18T10:58:59.734Z,57.88
2023-04-18T11:00:01.592Z,57.70
2023-04-18T11:01:03.288Z,58.16
2023-04-18T11:02:10.948Z,58.67
2023-04-18T11:03:12.719Z,57.57
2023-04-18T11:04:16.557Z,56.93
2023-04-18T11:05:28.198Z,55.53
2023-04-18T11:06:31.323Z,55.79
2023-04-18T11:07:40.827Z,58.02
2023-04-18T11:08:42.432Z,58.00
2023-04-18T11:09:56.715Z,59.72
2023-04-18T11:10:59.240Z,60.35
2023-04-18T11:12:08.947Z,60.21
2023-04-18T11:13:10.592Z,60.97
2023-04-18T11:14:12.421Z,61.21
2023-04-18T11:15:21.449Z,61.12
2023-04-18T11:16:31.640Z,60.42
2023-04-18T11:17:33.685Z,60.90
2023-04-18T11:18:42.025Z,60.05
2023-04-18T11:19:43.652Z,60.57
2023-04-18T11:20:50.508Z,61.39
2023-04-18T11:21:52.265Z,61.80
2023-04-18T11:22:56.266Z,62.70
2023-04-18T11:23:57.911Z,62.89
2023-04-18T11:25:00.906Z,62.15
2023-04-18T11:26:03.332Z,61.43
2023-04-18T11:27:05.122Z,60.83
2023-04-18T11:28:06.830Z,60.65
2023-04-18T11:29:08.481Z,60.65
2023-04-18T11:30:11.273Z,60.32
2023-04-18T11:31:15.853Z,60.21
2023-04-18T11:32:17.551Z,60.87
2023-04-18T11:33:19.240Z,61.53
2023-04-18T11:34:21.048Z,60.55
2023-04-18T11:35:22.864Z,60.53
2023-04-18T11:36:24.462Z,61.35
2023-04-18T11:37:26.108Z,60.98
2023-04-18T11:38:28.916Z,61.31
2023-04-18T11:39:33.615Z,60.75
2023-04-18T11:40:36.396Z,60.85
2023-04-18T11:41:40.704Z,60.60
2023-04-18T11:42:42.475Z,60.66
2023-04-18T11:43:45.149Z,60.12
2023-04-18T11:44:47.084Z,61.01
2023-04-18T11:45:58.787Z,60.32
2023-04-18T11:47:00.415Z,60.71
2023-04-18T11:48:02.584Z,61.20
2023-04-18T11:49:04.197Z,60.80
2023-04-18T11:50:07.024Z,60.83
2023-04-18T11:51:28.994Z,60.40
2023-04-18T11:52:31.538Z,60.47
2023-04-18T11:53:34.744Z,61.13
2023-04-18T11:54:38.653Z,60.96
2023-04-18T11:55:40.297Z,61.55
2023-04-18T11:56:48.775Z,60.00
2023-04-18T11:58:00.462Z,60.94
2023-04-18T11:59:09.074Z,60.18
2023-04-18T12:00:12.525Z,60.00
2023-04-18T12:01:18.104Z,60.36
2023-04-18T12:02:20.136Z,59.64
2023-04-18T12:03:22.750Z,60.07
2023-04-18T12:04:24.788Z,59.78
2023-04-18T12:05:28.221Z,60.03
2023-04-18T12:06:49.050Z,59.30
2023-04-18T12:07:50.719Z,58.45
2023-04-18T12:08:58.944Z,59.44
2023-04-18T12:10:00.969Z,59.73
2023-04-18T12:11:02.618Z,59.19
2023-04-18T12:12:04.450Z,59.84
2023-04-18T12:13:07.703Z,60.50
2023-04-18T12:14:21.781Z,60.60
2023-04-18T12:15:25.354Z,61.43
2023-04-18T12:16:28.439Z,61.02
2023-04-18T12:17:30.720Z,60.96
2023-04-18T12:18:32.529Z,60.47
2023-04-18T12:19:34.315Z,60.29
2023-04-18T12:20:46.770Z,60.46
2023-04-18T12:22:01.375Z,58.71
2023-04-18T12:23:03.631Z,58.90
2023-04-18T12:24:17.163Z,59.65
2023-04-18T12:25:26.190Z,60.18
2023-04-18T12:26:28.893Z,60.27
2023-04-18T12:27:47.683Z,60.22
2023-04-18T12:28:54.072Z,60.03
2023-04-18T12:29:55.785Z,59.30
2023-04-18T12:30:57.741Z,58.63
2023-04-18T12:31:59.467Z,58.43
2023-04-18T12:33:02.539Z,58.31
2023-04-18T12:34:04.222Z,57.91
2023-04-18T12:35:06.449Z,57.47
2023-04-18T12:36:08.644Z,57.65
2023-04-18T12:37:10.273Z,57.35
2023-04-18T12:38:11.942Z,57.51
2023-04-18T12:39:13.557Z,57.61
2023-04-18T12:40:15.318Z,57.02
2023-04-18T12:41:16.978Z,56.03
2023-04-18T12:42:18.659Z,55.04
2023-04-18T12:43:20.272Z,54.66
2023-04-18T12:44:22.804Z,55.03
2023-04-18T12:45:24.541Z,55.83
2023-04-18T12:46:26.332Z,56.22
2023-04-18T12:47:28.033Z,54.22
2023-04-18T12:48:29.699Z,53.99
2023-04-18T12:49:31.433Z,54.31
2023-04-18T12:50:33.486Z,54.92
2023-04-18T12:51:35.057Z,54.52
2023-04-18T12:52:39.068Z,55.09
2023-04-18T12:53:40.692Z,54.73
2023-04-18T12:54:42.280Z,53.41
2023-04-18T12:55:43.993Z,53.68
2023-04-18T12:56:46.205Z,53.66
2023-04-18T12:57:47.925Z,54.36
2023-04-18T12:58:49.529Z,53.54
2023-04-18T12:59:51.712Z,54.33
2023-04-18T13:00:53.500Z,54.91
2023-04-18T13:01:55.728Z,55.00
2023-04-18T13:02:57.600Z,54.97
2023-04-18T13:04:10.971Z,54.70
2023-04-18T13:05:14.990Z,54.74
2023-04-18T13:06:16.658Z,55.45
2023-04-18T13:07:18.607Z,54.27
2023-04-18T13:08:20.277Z,53.60
2023-04-18T13:09:21.926Z,53.64
2023-04-18T13:10:24.844Z,53.27
2023-04-18T13:11:28.772Z,53.40
2023-04-18T13:12:30.822Z,52.95
2023-04-18T13:13:34.394Z,52.49
2023-04-18T13:14:37.238Z,53.37
2023-04-18T13:15:38.996Z,53.45
2023-04-18T13:16:42.514Z,53.06
2023-04-18T13:17:45.574Z,52.38
2023-04-18T13:18:47.223Z,53.03
2023-04-18T13:19:49.266Z,53.39
2023-04-18T13:20:50.965Z,53.46
2023-04-18T13:21:53.388Z,51.98
2023-04-18T13:22:55.120Z,51.94
2023-04-18T13:23:56.788Z,51.01
2023-04-18T13:24:58.413Z,50.72
2023-04-18T13:26:00.037Z,49.98
2023-04-18T13:27:03.250Z,50.64
2023-04-18T13:28:05.271Z,51.56
2023-04-18T13:29:06.895Z,52.09
2023-04-18T13:30:09.984Z,50.70
2023-04-18T13:31:11.694Z,51.43